createdAt,value
2023-07-15T00:01:41.365Z,3.63
2023-07-15T00:04:26.700Z,3.61
2023-07-15T00:07:12.239Z,3.79
2023-07-15T00:09:57.464Z,3.78
2023-07-15T00:12:42.837Z,3.62
2023-07-15T00:15:28.122Z,3.70
2023-07-15T00:18:13.585Z,3.59
2023-07-15T00:20:58.828Z,3.96
2023-07-15T00:23:44.234Z,3.74
2023-07-15T00:26:29.503Z,3.92
2023-07-15T00:29:14.857Z,3.92
2023-07-15T00:32:00.493Z,3.95
2023-07-15T00:34:45.837Z,3.75
2023-07-15T00:37:31.127Z,4.12
2023-07-15T00:40:16.658Z,3.79
2023-07-15T00:43:02.824Z,4.00
2023-07-15T00:45:48.127Z,3.82
2023-07-15T00:48:33.410Z,3.74
2023-07-15T00:51:18.707Z,3.71
2023-07-15T00:54:04.014Z,3.92
2023-07-15T00:56:49.484Z,3.85
2023-07-15T00:59:34.930Z,3.97
2023-07-15T01:02:20.380Z,3.79
2023-07-15T01:05:05.829Z,3.78
2023-07-15T01:07:51.233Z,3.87
2023-07-15T01:10:36.495Z,4.01
2023-07-15T01:13:21.815Z,3.94
2023-07-15T01:16:06.874Z,3.85
2023-07-15T01:18:52.257Z,4.04
2023-07-15T01:21:37.207Z,4.10
2023-07-15T01:24:22.705Z,4.06
2023-07-15T01:27:07.873Z,4.08
2023-07-15T01:29:53.010Z,3.86
2023-07-15T01:32:38.446Z,3.94
2023-07-15T01:35:23.817Z,4.07
2023-07-15T01:38:09.110Z,3.92
2023-07-15T01:40:54.228Z,4.12
2023-07-15T01:43:39.711Z,4.12
2023-07-15T01:46:25.086Z,3.80
2023-07-15T01:49:10.530Z,3.98
2023-07-15T01:51:55.973Z,3.95
2023-07-15T01:54:41.299Z,3.85
2023-07-15T01:57:26.688Z,3.90
2023-07-15T02:00:12.088Z,3.93
2023-07-15T02:02:57.687Z,3.87
2023-07-15T02:05:43.101Z,3.71
2023-07-15T02:08:28.359Z,3.99
2023-07-15T02:11:13.526Z,3.76
2023-07-15T02:13:58.884Z,4.06
2023-07-15T02:16:44.495Z,4.22
2023-07-15T02:19:29.601Z,4.00
2023-07-15T02:22:14.901Z,4.11
2023-07-15T02:25:00.194Z,4.05
2023-07-15T02:27:45.159Z,4.03
2023-07-15T02:30:30.522Z,3.91
2023-07-15T02:33:15.883Z,3.84
2023-07-15T02:36:01.352Z,3.95
2023-07-15T02:38:46.830Z,3.98
2023-07-15T02:41:31.794Z,3.93
2023-07-15T02:44:17.383Z,3.85
2023-07-15T02:47:02.482Z,4.02
2023-07-15T02:49:48.024Z,3.79
2023-07-15T02:52:33.436Z,3.87
2023-07-15T02:55:18.796Z,3.72
2023-07-15T02:58:04.193Z,3.97
2023-07-15T03:00:49.649Z,4.04
2023-07-15T03:03:35.251Z,3.73
2023-07-15T03:06:20.404Z,3.82
2023-07-15T03:09:05.970Z,3.74
2023-07-15T03:11:51.365Z,3.79
2023-07-15T03:14:36.367Z,3.83
2023-07-15T03:17:21.743Z,3.71
2023-07-15T03:20:07.222Z,3.69
2023-07-15T03:22:52.434Z,3.87
2023-07-15T03:25:37.603Z,3.79
2023-07-15T03:28:23.048Z,3.83
2023-07-15T03:31:08.341Z,3.94
2023-07-15T03:33:53.587Z,3.76
2023-07-15T03:36:39.005Z,3.98
2023-07-15T03:39:24.329Z,3.90
2023-07-15T03:42:09.613Z,3.97
2023-07-15T03:44:55.176Z,4.07
2023-07-15T03:47:40.470Z,4.02
2023-07-15T03:50:25.802Z,3.98
2023-07-15T03:53:11.227Z,3.92
2023-07-15T03:55:56.641Z,4.08
2023-07-15T03:58:41.865Z,3.82
2023-07-15T04:01:27.526Z,4.10
2023-07-15T04:04:12.987Z,3.77
2023-07-15T04:06:57.967Z,3.71
2023-07-15T04:09:43.269Z,4.03
2023-07-15T04:12:28.273Z,3.97
2023-07-15T04:15:13.884Z,3.87
2023-07-15T04:17:59.111Z,3.81
2023-07-15T04:20:45.168Z,3.88
2023-07-15T04:23:30.411Z,4.07
2023-07-15T04:26:15.599Z,4.18
2023-07-15T04:29:01.083Z,3.99
2023-07-15T04:31:46.729Z,4.01
2023-07-15T04:34:31.799Z,4.28
2023-07-15T04:37:17.227Z,3.89
2023-07-15T04:40:02.606Z,4.13
2023-07-15T04:42:47.906Z,4.05
2023-07-15T04:45:33.203Z,3.93
2023-07-15T04:48:18.281Z,4.44
2023-07-15T04:51:03.815Z,3.97
2023-07-15T04:53:49.102Z,4.08
2023-07-15T04:56:34.759Z,3.98
2023-07-15T04:59:20.134Z,4.05
2023-07-15T05:02:05.574Z,3.89
2023-07-15T05:04:50.889Z,3.83
2023-07-15T05:07:47.533Z,3.85
2023-07-15T05:10:43.602Z,3.87
2023-07-15T05:13:30.630Z,3.66
2023-07-15T05:16:16.060Z,3.83
2023-07-15T05:19:01.231Z,3.99
2023-07-15T05:21:46.724Z,4.11
2023-07-15T05:24:31.928Z,3.87
2023-07-15T05:27:17.301Z,3.66
2023-07-15T05:30:02.674Z,3.91
2023-07-15T05:32:48.191Z,3.81
2023-07-15T05:35:33.626Z,3.84
2023-07-15T05:38:19.001Z,3.89
2023-07-15T05:41:04.457Z,3.67
2023-07-15T05:43:49.728Z,3.51
2023-07-15T05:46:35.288Z,3.70
2023-07-15T05:49:20.531Z,3.65
2023-07-15T05:52:06.048Z,3.96
2023-07-15T05:54:51.512Z,3.82
2023-07-15T05:57:36.473Z,3.94
2023-07-15T06:00:21.586Z,4.06
2023-07-15T06:03:06.865Z,4.21
2023-07-15T06:05:52.196Z,4.40
2023-07-15T06:08:37.497Z,4.26
2023-07-15T06:11:22.855Z,4.16
2023-07-15T06:14:08.399Z,4.21
2023-07-15T06:16:53.805Z,4.23
2023-07-15T06:19:39.287Z,3.98
2023-07-15T06:22:24.654Z,4.11
2023-07-15T06:25:10.065Z,4.05
2023-07-15T06:27:55.473Z,4.04
2023-07-15T06:30:40.854Z,4.22
2023-07-15T06:33:26.394Z,3.93
2023-07-15T06:36:11.638Z,3.85
2023-07-15T06:38:57.246Z,3.97
2023-07-15T06:41:42.476Z,3.93
2023-07-15T06:44:27.806Z,4.14
2023-07-15T06:47:13.294Z,4.01
2023-07-15T06:49:59.835Z,4.01
2023-07-15T06:52:45.505Z,4.18
2023-07-15T06:55:30.710Z,4.07
2023-07-15T06:58:15.998Z,4.05
2023-07-15T07:01:01.438Z,3.98
2023-07-15T07:03:46.678Z,3.82
2023-07-15T07:06:31.762Z,3.82
2023-07-15T07:09:17.084Z,4.03
2023-07-15T07:12:02.797Z,4.14
2023-07-15T07:14:47.884Z,3.88
2023-07-15T07:17:32.923Z,3.73
2023-07-15T07:20:18.382Z,3.99
2023-07-15T07:23:03.868Z,4.00
2023-07-15T07:25:51.037Z,4.10
2023-07-15T07:28:36.366Z,3.99
2023-07-15T07:31:21.676Z,4.02
2023-07-15T07:34:07.030Z,3.96
2023-07-15T07:36:52.415Z,4.16
2023-07-15T07:39:37.725Z,4.07
2023-07-15T07:42:23.040Z,3.99
2023-07-15T07:45:08.385Z,4.15
2023-07-15T07:47:53.909Z,4.39
2023-07-15T07:50:39.234Z,4.17
2023-07-15T07:53:24.430Z,4.23
2023-07-15T07:56:09.730Z,4.22
2023-07-15T07:58:55.072Z,3.95
2023-07-15T08:01:40.495Z,4.25
2023-07-15T08:04:25.885Z,3.89
2023-07-15T08:07:11.310Z,4.09
2023-07-15T08:09:57.026Z,4.46
2023-07-15T08:12:42.389Z,4.14
2023-07-15T08:15:27.901Z,4.16
2023-07-15T08:18:13.307Z,3.87
2023-07-15T08:20:58.851Z,4.05
2023-07-15T08:23:44.125Z,4.17
2023-07-15T08:26:29.426Z,4.03
2023-07-15T08:29:14.949Z,3.89
2023-07-15T08:32:00.269Z,4.40
2023-07-15T08:34:45.785Z,4.06
2023-07-15T08:37:30.849Z,4.21
2023-07-15T08:40:16.339Z,4.16
2023-07-15T08:43:01.580Z,3.89
2023-07-15T08:45:47.075Z,3.93
2023-07-15T08:48:32.592Z,4.30
2023-07-15T08:51:17.857Z,4.17
2023-07-15T08:54:03.293Z,3.96
2023-07-15T08:56:48.519Z,4.31
2023-07-15T08:59:34.159Z,4.17
2023-07-15T09:02:19.426Z,4.32
2023-07-15T09:05:04.713Z,4.45
2023-07-15T09:07:50.043Z,4.09
2023-07-15T09:10:35.422Z,3.88
2023-07-15T09:13:21.001Z,4.08
2023-07-15T09:16:06.452Z,4.01
2023-07-15T09:18:51.779Z,4.32
2023-07-15T09:21:37.251Z,4.53
2023-07-15T09:24:22.669Z,3.94
2023-07-15T09:27:08.130Z,4.17
2023-07-15T09:29:53.514Z,4.12
2023-07-15T09:32:38.890Z,4.11
2023-07-15T09:35:24.353Z,3.96
2023-07-15T09:38:09.623Z,4.15
2023-07-15T09:40:55.046Z,4.08
2023-07-15T09:43:40.180Z,3.75
2023-07-15T09:46:25.597Z,4.03
2023-07-15T09:49:10.578Z,3.94
2023-07-15T09:51:55.807Z,4.18
2023-07-15T09:54:41.181Z,4.21
2023-07-15T09:57:26.469Z,3.86
2023-07-15T10:00:12.475Z,3.92
2023-07-15T10:02:58.455Z,4.33
2023-07-15T10:05:43.398Z,4.12
2023-07-15T10:08:28.826Z,3.88
2023-07-15T10:11:14.347Z,3.96
2023-07-15T10:13:59.920Z,3.97
2023-07-15T10:16:45.305Z,4.29
2023-07-15T10:19:31.252Z,3.91
2023-07-15T10:22:16.544Z,3.99
2023-07-15T10:25:01.639Z,4.08
2023-07-15T10:27:47.160Z,3.87
2023-07-15T10:30:32.433Z,3.84
2023-07-15T10:33:18.067Z,3.92
2023-07-15T10:36:03.278Z,4.25
2023-07-15T10:38:48.667Z,3.81
2023-07-15T10:41:34.036Z,4.30
2023-07-15T10:44:19.324Z,4.30
2023-07-15T10:47:04.810Z,4.14
2023-07-15T10:49:52.973Z,4.20
2023-07-15T10:52:38.560Z,4.30
2023-07-15T10:55:23.906Z,4.38
2023-07-15T10:58:09.332Z,4.53
2023-07-15T11:00:54.802Z,4.51
2023-07-15T11:03:40.484Z,4.45
2023-07-15T11:06:25.498Z,4.22
2023-07-15T11:09:10.889Z,4.20
2023-07-15T11:11:56.216Z,4.38
2023-07-15T11:14:41.894Z,4.67
2023-07-15T11:17:27.041Z,4.25
2023-07-15T11:20:12.395Z,4.20
2023-07-15T11:22:57.676Z,4.41
2023-07-15T11:25:43.064Z,4.25
2023-07-15T11:28:28.614Z,4.28
2023-07-15T11:31:13.887Z,4.42
2023-07-15T11:33:59.263Z,4.47
2023-07-15T11:36:47.337Z,4.17
2023-07-15T11:39:32.836Z,4.47
2023-07-15T11:42:18.319Z,4.25
2023-07-15T11:45:03.647Z,4.48
2023-07-15T11:47:49.219Z,4.28
2023-07-15T11:50:34.479Z,4.38
2023-07-15T11:53:19.855Z,4.42
2023-07-15T11:56:05.562Z,4.43
2023-07-15T11:58:50.773Z,4.27
2023-07-15T12:01:36.285Z,4.78
2023-07-15T12:04:24.690Z,4.70
2023-07-15T12:07:10.371Z,4.58
2023-07-15T12:09:55.670Z,4.34
2023-07-15T12:12:40.996Z,4.24
2023-07-15T12:15:26.406Z,4.07
2023-07-15T12:18:11.741Z,4.38
2023-07-15T12:20:57.097Z,4.33
2023-07-15T12:23:42.439Z,4.38
2023-07-15T12:26:27.823Z,4.89
2023-07-15T12:29:13.497Z,4.77
2023-07-15T12:31:59.062Z,4.94
2023-07-15T12:34:44.358Z,4.98
2023-07-15T12:37:29.854Z,4.64
2023-07-15T12:40:15.138Z,4.95
2023-07-15T12:43:00.220Z,5.09
2023-07-15T12:45:45.732Z,5.25
2023-07-15T12:48:30.949Z,5.39
2023-07-15T12:51:16.299Z,5.22
2023-07-15T12:54:01.581Z,4.98
2023-07-15T12:56:47.006Z,5.20
2023-07-15T12:59:32.426Z,5.29
2023-07-15T13:02:17.887Z,4.83
2023-07-15T13:05:03.287Z,5.07
2023-07-15T13:07:48.533Z,5.22
2023-07-15T13:10:33.958Z,5.16
2023-07-15T13:13:19.261Z,5.11
2023-07-15T13:16:04.601Z,5.06
2023-07-15T13:18:49.935Z,5.09
2023-07-15T13:21:35.240Z,5.06
2023-07-15T13:24:20.698Z,5.09
2023-07-15T13:27:05.671Z,5.15
2023-07-15T13:29:50.772Z,4.87
2023-07-15T13:32:36.043Z,5.21
2023-07-15T13:35:21.539Z,5.25
2023-07-15T13:38:07.014Z,5.47
2023-07-15T13:40:52.188Z,5.59
2023-07-15T13:43:37.903Z,5.37
2023-07-15T13:46:23.154Z,5.41
2023-07-15T13:49:08.547Z,5.42
2023-07-15T13:51:53.888Z,5.29
2023-07-15T13:54:39.257Z,5.32
2023-07-15T13:57:24.706Z,5.38
2023-07-15T14:00:13.538Z,5.42
2023-07-15T14:02:59.458Z,5.04
2023-07-15T14:05:45.278Z,5.59
2023-07-15T14:08:30.686Z,5.56
2023-07-15T14:11:16.320Z,5.36
2023-07-15T14:14:01.793Z,5.09
2023-07-15T14:16:47.174Z,5.17
2023-07-15T14:19:32.380Z,5.11
2023-07-15T14:22:22.099Z,5.01
2023-07-15T14:25:12.437Z,5.15
2023-07-15T14:27:58.347Z,5.19
2023-07-15T14:30:43.953Z,5.19
2023-07-15T14:33:29.115Z,5.04
2023-07-15T14:36:14.961Z,5.25
2023-07-15T14:38:59.984Z,5.18
2023-07-15T14:41:45.400Z,5.11
2023-07-15T14:44:30.484Z,5.30
2023-07-15T14:47:15.410Z,5.14
2023-07-15T14:50:00.960Z,5.14
2023-07-15T14:52:46.389Z,4.92
2023-07-15T14:55:31.709Z,5.15
2023-07-15T14:58:17.032Z,5.22
2023-07-15T15:01:05.157Z,5.98
2023-07-15T15:03:50.552Z,6.18
2023-07-15T15:06:35.856Z,6.32
2023-07-15T15:09:21.150Z,7.04
2023-07-15T15:12:07.126Z,7.25
2023-07-15T15:14:52.373Z,7.06
2023-07-15T15:17:37.542Z,6.67
2023-07-15T15:20:22.782Z,7.04
2023-07-15T15:23:08.221Z,7.05
2023-07-15T15:25:53.570Z,7.40
2023-07-15T15:28:38.776Z,7.06
2023-07-15T15:31:24.106Z,6.65
2023-07-15T15:34:09.528Z,6.89
2023-07-15T15:36:54.785Z,6.93
2023-07-15T15:39:40.231Z,6.85
2023-07-15T15:42:25.803Z,6.88
2023-07-15T15:45:11.128Z,6.96
2023-07-15T15:47:56.410Z,7.23
2023-07-15T15:50:41.766Z,7.15
2023-07-15T15:53:26.993Z,7.47
2023-07-15T15:56:12.473Z,7.25
2023-07-15T15:58:57.856Z,6.94
2023-07-15T16:01:43.355Z,7.04
2023-07-15T16:04:28.514Z,6.96
2023-07-15T16:07:13.712Z,6.82
2023-07-15T16:09:59.261Z,6.75
2023-07-15T16:12:44.494Z,7.25
2023-07-15T16:15:29.956Z,7.04
2023-07-15T16:18:15.337Z,6.95
2023-07-15T16:21:00.705Z,6.58
2023-07-15T16:23:46.216Z,6.45
2023-07-15T16:26:31.475Z,6.80
2023-07-15T16:29:16.981Z,6.49
2023-07-15T16:32:03.090Z,6.39
2023-07-15T16:34:48.325Z,6.54
2023-07-15T16:37:33.762Z,6.61
2023-07-15T16:40:19.031Z,6.30
2023-07-15T16:43:04.650Z,6.34
2023-07-15T16:45:50.175Z,6.68
2023-07-15T16:48:35.579Z,6.34
2023-07-15T16:51:21.017Z,6.40
2023-07-15T16:54:06.195Z,6.44
2023-07-15T16:56:51.561Z,6.43
2023-07-15T16:59:36.699Z,6.20
2023-07-15T17:02:21.859Z,6.48
2023-07-15T17:05:07.340Z,6.10
2023-07-15T17:07:52.714Z,6.18
2023-07-15T17:10:38.145Z,6.22
2023-07-15T17:13:23.427Z,6.01
2023-07-15T17:16:09.193Z,6.49
2023-07-15T17:18:55.778Z,6.70
2023-07-15T17:21:41.001Z,6.32
2023-07-15T17:24:26.503Z,6.51
2023-07-15T17:27:11.476Z,6.55
2023-07-15T17:29:56.829Z,5.95
2023-07-15T17:32:42.177Z,6.17
2023-07-15T17:35:27.545Z,6.34
2023-07-15T17:38:12.917Z,5.95
2023-07-15T17:40:57.871Z,6.13
2023-07-15T17:43:42.987Z,6.09
2023-07-15T17:46:28.483Z,6.18
2023-07-15T17:49:13.706Z,5.72
2023-07-15T17:51:59.187Z,6.10
2023-07-15T17:54:44.563Z,6.04
2023-07-15T17:57:29.941Z,6.20
2023-07-15T18:00:15.241Z,5.92
2023-07-15T18:03:00.682Z,6.41
2023-07-15T18:05:46.082Z,6.18
2023-07-15T18:08:31.460Z,6.59
2023-07-15T18:11:17.063Z,7.49
2023-07-15T18:14:02.568Z,8.99
2023-07-15T18:16:48.057Z,9.63
2023-07-15T18:19:33.319Z,9.61
2023-07-15T18:22:18.823Z,9.95
2023-07-15T18:25:04.456Z,10.14
2023-07-15T18:27:49.863Z,10.25
2023-07-15T18:30:35.246Z,10.11
2023-07-15T18:33:20.507Z,10.44
2023-07-15T18:36:05.977Z,10.02
2023-07-15T18:38:51.314Z,10.12
2023-07-15T18:41:36.551Z,8.87
2023-07-15T18:44:21.666Z,9.29
2023-07-15T18:47:06.977Z,10.84
2023-07-15T18:49:52.284Z,11.58
2023-07-15T18:52:37.555Z,12.18
2023-07-15T18:55:23.210Z,12.01
2023-07-15T18:58:08.497Z,12.12
2023-07-15T19:00:53.772Z,11.71
2023-07-15T19:03:39.588Z,11.67
2023-07-15T19:06:25.101Z,12.09
2023-07-15T19:09:10.546Z,11.06
2023-07-15T19:11:56.090Z,11.36
2023-07-15T19:14:41.405Z,11.35
2023-07-15T19:17:26.929Z,11.46
2023-07-15T19:20:12.068Z,11.02
2023-07-15T19:22:57.485Z,11.22
2023-07-15T19:25:42.629Z,11.25
2023-07-15T19:28:29.940Z,11.02
2023-07-15T19:31:16.864Z,11.04
2023-07-15T19:34:02.287Z,11.03
2023-07-15T19:36:47.831Z,10.84
2023-07-15T19:39:33.253Z,10.58
2023-07-15T19:42:18.623Z,10.55
2023-07-15T19:45:04.048Z,10.86
2023-07-15T19:47:49.510Z,10.27
2023-07-15T19:50:35.102Z,10.39
2023-07-15T19:53:20.708Z,10.39
2023-07-15T19:56:06.163Z,10.28
2023-07-15T19:58:51.413Z,10.46
2023-07-15T20:01:36.852Z,10.69
2023-07-15T20:04:22.291Z,10.37
2023-07-15T20:07:07.651Z,10.24
2023-07-15T20:09:52.960Z,10.13
2023-07-15T20:12:38.575Z,10.22
2023-07-15T20:15:23.663Z,10.15
2023-07-15T20:18:08.836Z,10.24
2023-07-15T20:20:54.121Z,9.75
2023-07-15T20:23:39.271Z,10.11
2023-07-15T20:26:24.726Z,9.70
2023-07-15T20:29:09.998Z,9.92
2023-07-15T20:31:55.328Z,9.54
2023-07-15T20:34:40.620Z,9.43
2023-07-15T20:37:25.937Z,9.90
2023-07-15T20:40:11.337Z,9.43
2023-07-15T20:42:56.673Z,10.02
2023-07-15T20:45:42.225Z,9.70
2023-07-15T20:48:27.519Z,9.46
2023-07-15T20:51:13.087Z,9.79
2023-07-15T20:53:58.181Z,9.32
2023-07-15T20:56:43.379Z,9.24
2023-07-15T20:59:28.974Z,9.11
2023-07-15T21:02:14.289Z,9.34
2023-07-15T21:04:59.692Z,9.50
2023-07-15T21:07:45.123Z,9.81
2023-07-15T21:10:30.150Z,9.25
2023-07-15T21:13:15.723Z,9.45
2023-07-15T21:16:01.313Z,8.91
2023-07-15T21:18:46.486Z,9.29
2023-07-15T21:21:31.836Z,9.09
2023-07-15T21:24:17.169Z,9.95
2023-07-15T21:27:02.529Z,8.86
2023-07-15T21:29:47.801Z,8.64
2023-07-15T21:32:33.343Z,8.44
2023-07-15T21:35:18.942Z,8.45
2023-07-15T21:38:04.498Z,8.52
2023-07-15T21:40:49.873Z,8.46
2023-07-15T21:43:35.360Z,8.75
2023-07-15T21:46:20.677Z,8.29
2023-07-15T21:49:06.043Z,8.31
2023-07-15T21:51:51.324Z,8.74
2023-07-15T21:54:36.573Z,8.45
2023-07-15T21:57:22.047Z,8.62
2023-07-15T22:00:07.211Z,8.18
2023-07-15T22:02:52.872Z,8.09
2023-07-15T22:05:38.215Z,7.61
2023-07-15T22:08:23.343Z,8.03
2023-07-15T22:11:08.912Z,8.09
2023-07-15T22:13:54.296Z,7.87
2023-07-15T22:16:39.851Z,7.46
2023-07-15T22:19:25.420Z,7.57
2023-07-15T22:22:10.677Z,7.57
2023-07-15T22:24:55.911Z,7.57
2023-07-15T22:27:45.032Z,7.54
2023-07-15T22:30:30.532Z,7.27
2023-07-15T22:33:15.906Z,7.76
2023-07-15T22:36:01.156Z,7.49
2023-07-15T22:38:46.601Z,7.60
2023-07-15T22:41:31.645Z,7.52
2023-07-15T22:44:17.067Z,7.33
2023-07-15T22:47:02.614Z,7.43
2023-07-15T22:49:47.980Z,7.20
2023-07-15T22:52:36.618Z,7.29
2023-07-15T22:55:22.279Z,7.01
2023-07-15T22:58:07.527Z,7.22
2023-07-15T23:00:55.924Z,7.03
2023-07-15T23:03:43.109Z,6.95
2023-07-15T23:06:28.359Z,7.27
2023-07-15T23:09:13.796Z,6.89
2023-07-15T23:11:59.167Z,7.43
2023-07-15T23:14:44.612Z,6.73
2023-07-15T23:17:30.101Z,6.55
2023-07-15T23:20:15.315Z,6.93
2023-07-15T23:23:15.081Z,6.88
2023-07-15T23:26:01.971Z,7.03
2023-07-15T23:28:47.410Z,6.86
2023-07-15T23:31:32.480Z,6.85
2023-07-15T23:34:17.781Z,6.96
2023-07-15T23:37:03.240Z,6.83
2023-07-15T23:39:48.394Z,6.41
2023-07-15T23:42:33.508Z,6.78
2023-07-15T23:45:18.839Z,6.58
2023-07-15T23:48:04.307Z,7.06
2023-07-15T23:50:49.806Z,6.49
2023-07-15T23:53:35.284Z,6.21
2023-07-15T23:56:20.680Z,6.22
2023-07-15T23:59:05.792Z,6.16
